createdAt,value
2022-09-20T00:01:29.982Z,9.10
2022-09-20T00:03:59.993Z,9.10
2022-09-20T00:06:29.761Z,9.10
2022-09-20T00:08:59.366Z,9.10
2022-09-20T00:11:29.213Z,9.10
2022-09-20T00:14:01.137Z,9.10
2022-09-20T00:16:32.255Z,9.10
2022-09-20T00:19:03.838Z,9.00
2022-09-20T00:21:33.585Z,9.00
2022-09-20T00:24:01.855Z,9.00
2022-09-20T00:26:30.106Z,9.00
2022-09-20T00:29:00.304Z,9.00
2022-09-20T00:31:28.343Z,9.00
2022-09-20T00:34:14.327Z,9.10
2022-09-20T00:36:42.441Z,9.10
2022-09-20T00:39:13.214Z,9.10
2022-09-20T00:41:41.084Z,9.00
2022-09-20T00:44:45.377Z,9.00
2022-09-20T00:47:20.419Z,9.00
2022-09-20T00:49:49.224Z,8.90
2022-09-20T00:52:18.119Z,8.90
2022-09-20T00:54:46.654Z,8.90
2022-09-20T00:57:14.733Z,8.90
2022-09-20T00:59:47.805Z,9.00
2022-09-20T01:02:19.315Z,9.00
2022-09-20T01:04:49.015Z,9.00
2022-09-20T01:07:19.797Z,8.90
2022-09-20T01:09:47.894Z,9.00
2022-09-20T01:12:20.034Z,8.90
2022-09-20T01:14:51.310Z,8.90
2022-09-20T01:17:20.631Z,8.90
2022-09-20T01:20:00.897Z,8.90
2022-09-20T01:22:36.796Z,8.90
2022-09-20T01:25:11.302Z,8.80
2022-09-20T01:27:45.590Z,8.70
2022-09-20T01:30:17.745Z,8.70
2022-09-20T01:32:55.709Z,8.70
2022-09-20T01:35:26.288Z,8.70
2022-09-20T01:38:06.743Z,8.70
2022-09-20T01:40:42.985Z,8.60
2022-09-20T01:43:21.195Z,8.60
2022-09-20T01:45:50.644Z,8.60
2022-09-20T01:48:28.335Z,8.60
2022-09-20T01:51:17.453Z,8.60
2022-09-20T01:54:19.589Z,8.60
2022-09-20T01:57:11.753Z,8.60
2022-09-20T02:00:10.854Z,8.60
2022-09-20T02:03:13.383Z,8.60
2022-09-20T02:06:18.825Z,8.50
2022-09-20T02:09:03.524Z,8.50
2022-09-20T02:11:45.809Z,8.40
2022-09-20T02:14:34.838Z,8.40
2022-09-20T02:17:13.877Z,8.40
2022-09-20T02:20:00.519Z,8.40
2022-09-20T02:22:41.577Z,8.40
2022-09-20T02:25:21.586Z,8.40
2022-09-20T02:28:00.124Z,8.40
2022-09-20T02:30:40.352Z,8.30
2022-09-20T02:33:28.380Z,8.20
2022-09-20T02:36:17.022Z,8.20
2022-09-20T02:38:54.336Z,8.20
2022-09-20T02:41:51.960Z,8.20
2022-09-20T02:44:35.359Z,8.30
2022-09-20T02:47:13.469Z,8.20
2022-09-20T02:49:55.530Z,8.20
2022-09-20T02:52:31.865Z,8.20
2022-09-20T02:55:06.212Z,8.20
2022-09-20T02:57:44.989Z,8.20
2022-09-20T03:00:17.760Z,8.20
2022-09-20T03:02:54.152Z,8.20
2022-09-20T03:05:28.894Z,8.20
2022-09-20T03:08:16.909Z,8.30
2022-09-20T03:10:55.577Z,8.30
2022-09-20T03:13:30.735Z,8.30
2022-09-20T03:16:09.351Z,8.30
2022-09-20T03:18:47.886Z,8.30
2022-09-20T03:21:33.191Z,8.30
2022-09-20T03:24:11.077Z,8.20
2022-09-20T03:26:51.523Z,8.20
2022-09-20T03:29:34.049Z,8.20
2022-09-20T03:32:16.403Z,8.20
2022-09-20T03:34:55.069Z,8.20
2022-09-20T03:37:40.498Z,8.10
2022-09-20T03:40:46.791Z,8.10
2022-09-20T03:43:27.457Z,8.20
2022-09-20T03:46:09.860Z,8.20
2022-09-20T03:48:57.494Z,8.20
2022-09-20T03:51:34.053Z,8.20
2022-09-20T03:54:35.652Z,8.20
2022-09-20T03:57:16.043Z,8.20
2022-09-20T03:59:59.573Z,8.20
2022-09-20T04:02:41.172Z,8.20
2022-09-20T04:05:13.841Z,8.20
2022-09-20T04:07:54.736Z,8.20
2022-09-20T04:10:34.831Z,8.20
2022-09-20T04:13:35.725Z,8.20
2022-09-20T04:16:15.685Z,8.10
2022-09-20T04:18:49.142Z,8.10
2022-09-20T04:21:24.282Z,8.10
2022-09-20T04:24:00.770Z,8.10
2022-09-20T04:26:32.431Z,8.10
2022-09-20T04:29:14.412Z,8.20
2022-09-20T04:31:54.062Z,8.10
2022-09-20T04:34:47.364Z,8.20
2022-09-20T04:37:26.559Z,8.20
2022-09-20T04:40:03.367Z,8.30
2022-09-20T04:43:21.832Z,8.30
2022-09-20T04:46:10.168Z,8.30
2022-09-20T04:49:17.542Z,8.30
2022-09-20T04:52:10.166Z,8.30
2022-09-20T04:54:59.894Z,8.30
2022-09-20T04:57:58.500Z,8.30
2022-09-20T05:00:33.988Z,8.30
2022-09-20T05:03:45.734Z,8.30
2022-09-20T05:06:35.089Z,8.30
2022-09-20T05:09:51.046Z,8.20
2022-09-20T05:12:54.522Z,8.20
2022-09-20T05:15:36.343Z,8.20
2022-09-20T05:18:33.009Z,8.20
2022-09-20T05:21:13.265Z,8.20
2022-09-20T05:23:56.884Z,8.20
2022-09-20T05:26:39.769Z,8.20
2022-09-20T05:29:15.796Z,8.10
2022-09-20T05:31:52.343Z,8.10
2022-09-20T05:34:26.717Z,8.20
2022-09-20T05:37:00.849Z,8.20
2022-09-20T05:39:35.604Z,8.20
2022-09-20T05:42:15.784Z,8.20
2022-09-20T05:44:56.681Z,8.20
2022-09-20T05:47:36.837Z,8.30
2022-09-20T05:50:30.732Z,8.30
2022-09-20T05:53:08.278Z,8.30
2022-09-20T05:55:52.990Z,8.30
2022-09-20T05:58:45.723Z,8.40
2022-09-20T06:01:21.309Z,8.40
2022-09-20T06:03:55.778Z,8.40
2022-09-20T06:06:32.578Z,8.40
2022-09-20T06:09:20.994Z,8.50
2022-09-20T06:12:16.955Z,8.60
2022-09-20T06:14:50.755Z,8.60
2022-09-20T06:17:25.498Z,8.60
2022-09-20T06:20:09.692Z,8.60
2022-09-20T06:22:42.797Z,8.60
2022-09-20T06:25:21.355Z,8.50
2022-09-20T06:27:54.599Z,8.50
2022-09-20T06:30:26.916Z,8.50
2022-09-20T06:32:56.611Z,8.50
2022-09-20T06:35:32.335Z,8.50
2022-09-20T06:38:29.950Z,8.60
2022-09-20T06:41:14.415Z,8.60
2022-09-20T06:43:42.990Z,8.60
2022-09-20T06:46:11.868Z,8.70
2022-09-20T06:48:40.133Z,8.70
2022-09-20T06:51:10.436Z,8.70
2022-09-20T06:53:41.883Z,8.70
2022-09-20T06:56:14.454Z,8.70
2022-09-20T06:58:42.399Z,8.70
2022-09-20T07:01:10.326Z,8.70
2022-09-20T07:03:38.443Z,8.80
2022-09-20T07:06:06.840Z,8.80
2022-09-20T07:08:36.359Z,8.80
2022-09-20T07:11:06.146Z,8.80
2022-09-20T07:13:34.132Z,8.90
2022-09-20T07:16:03.381Z,9.00
2022-09-20T07:18:33.489Z,9.00
2022-09-20T07:21:01.487Z,9.00
2022-09-20T07:23:31.362Z,9.10
2022-09-20T07:26:01.168Z,9.20
2022-09-20T07:28:30.143Z,9.20
2022-09-20T07:30:58.526Z,9.30
2022-09-20T07:33:26.454Z,9.30
2022-09-20T07:35:55.772Z,9.40
2022-09-20T07:38:24.199Z,9.40
2022-09-20T07:40:57.567Z,9.60
2022-09-20T07:43:27.191Z,9.90
2022-09-20T07:45:56.493Z,10.10
2022-09-20T07:48:26.829Z,10.20
2022-09-20T07:50:56.960Z,10.10
2022-09-20T07:53:25.125Z,10.00
2022-09-20T07:56:00.886Z,9.90
2022-09-20T07:58:32.238Z,9.90
2022-09-20T08:01:01.839Z,9.80
2022-09-20T08:03:31.480Z,9.80
2022-09-20T08:06:04.349Z,9.60
2022-09-20T08:08:33.748Z,9.60
2022-09-20T08:11:06.676Z,9.80
2022-09-20T08:16:27.137Z,10.70
2022-09-20T08:18:57.645Z,11.20
2022-09-20T08:21:26.680Z,11.60
2022-09-20T08:23:55.017Z,12.00
2022-09-20T08:26:25.309Z,12.10
2022-09-20T08:28:56.136Z,12.10
2022-09-20T08:31:26.518Z,12.20
2022-09-20T08:33:55.519Z,12.00
2022-09-20T08:36:25.358Z,12.00
2022-09-20T08:41:46.576Z,11.60
2022-09-20T08:44:19.353Z,11.40
2022-09-20T08:46:50.953Z,11.20
2022-09-20T08:49:26.466Z,11.20
2022-09-20T08:51:58.013Z,11.10
2022-09-20T08:54:32.131Z,11.10
2022-09-20T08:57:05.272Z,11.20
2022-09-20T08:59:35.082Z,11.20
2022-09-20T09:02:03.046Z,11.40
2022-09-20T09:04:37.206Z,12.00
2022-09-20T09:07:05.960Z,12.50
2022-09-20T09:09:37.642Z,12.70
2022-09-20T09:12:33.443Z,12.70
2022-09-20T09:15:22.984Z,12.70
2022-09-20T09:17:51.356Z,12.60
2022-09-20T09:20:21.752Z,12.40
2022-09-20T09:22:59.696Z,12.10
2022-09-20T09:25:32.140Z,11.90
2022-09-20T09:28:03.165Z,11.60
2022-09-20T09:30:35.175Z,11.40
2022-09-20T09:33:25.031Z,11.30
2022-09-20T09:35:56.490Z,11.20
2022-09-20T09:38:26.860Z,11.20
2022-09-20T09:40:57.073Z,11.20
2022-09-20T09:43:29.085Z,11.30
2022-09-20T09:46:18.539Z,11.30
2022-09-20T09:48:50.162Z,11.40
2022-09-20T09:51:20.489Z,11.50
2022-09-20T09:53:50.075Z,11.60
2022-09-20T09:56:42.536Z,11.60
2022-09-20T09:59:23.458Z,11.60
2022-09-20T10:02:00.792Z,11.60
2022-09-20T10:04:36.207Z,11.50
2022-09-20T10:07:10.579Z,11.50
2022-09-20T10:09:56.549Z,11.60
2022-09-20T10:12:42.791Z,11.60
2022-09-20T10:15:26.736Z,11.70
2022-09-20T10:18:10.133Z,11.60
2022-09-20T10:21:04.708Z,11.70
2022-09-20T10:24:04.207Z,11.70
2022-09-20T10:26:48.011Z,11.60
2022-09-20T10:29:26.191Z,11.70
2022-09-20T10:32:00.707Z,11.90
2022-09-20T10:35:07.097Z,12.00
2022-09-20T10:37:49.183Z,12.20
2022-09-20T10:40:47.175Z,12.30
2022-09-20T10:43:27.954Z,12.40
2022-09-20T10:49:04.707Z,12.40
2022-09-20T10:51:45.505Z,12.20
2022-09-20T10:54:26.624Z,12.00
2022-09-20T10:57:07.118Z,11.90
2022-09-20T10:59:47.186Z,11.80
2022-09-20T11:02:26.063Z,11.70
2022-09-20T11:05:34.112Z,11.90
2022-09-20T11:08:13.912Z,12.20
2022-09-20T11:10:46.529Z,12.70
2022-09-20T11:13:23.439Z,13.00
2022-09-20T11:16:00.296Z,13.20
2022-09-20T11:18:38.258Z,13.10
2022-09-20T11:21:13.955Z,13.00
2022-09-20T11:23:50.967Z,12.90
2022-09-20T11:26:25.880Z,12.80
2022-09-20T11:28:56.957Z,12.70
2022-09-20T11:31:29.085Z,12.60
2022-09-20T11:34:02.907Z,12.60
2022-09-20T11:36:39.461Z,12.80
2022-09-20T11:39:16.627Z,13.20
2022-09-20T11:41:45.356Z,13.70
2022-09-20T11:44:16.076Z,14.00
2022-09-20T11:46:52.915Z,14.10
2022-09-20T11:49:24.907Z,14.30
2022-09-20T11:52:26.071Z,14.40
2022-09-20T11:55:21.350Z,14.30
2022-09-20T11:58:01.557Z,14.10
2022-09-20T12:00:32.083Z,14.00
2022-09-20T12:03:03.262Z,13.90
2022-09-20T12:05:35.825Z,13.80
2022-09-20T12:08:06.999Z,14.00
2022-09-20T12:10:40.437Z,14.20
2022-09-20T12:13:22.060Z,14.30
2022-09-20T12:16:00.223Z,14.40
2022-09-20T12:18:37.906Z,14.40
2022-09-20T12:21:16.059Z,14.50
2022-09-20T12:24:01.433Z,14.60
2022-09-20T12:26:43.032Z,14.90
2022-09-20T12:29:46.589Z,15.00
2022-09-20T12:32:46.336Z,14.80
2022-09-20T12:35:55.870Z,14.70
2022-09-20T12:38:43.905Z,14.50
2022-09-20T12:41:27.868Z,14.40
2022-09-20T12:44:08.508Z,14.50
2022-09-20T12:46:57.068Z,14.60
2022-09-20T12:49:56.035Z,14.60
2022-09-20T12:52:56.913Z,14.70
2022-09-20T12:55:40.632Z,14.90
2022-09-20T12:58:26.342Z,15.10
2022-09-20T13:01:30.097Z,14.60
2022-09-20T13:04:32.693Z,14.30
2022-09-20T13:07:46.940Z,13.90
2022-09-20T13:10:49.973Z,13.40
2022-09-20T13:13:33.013Z,13.30
2022-09-20T13:16:05.584Z,13.30
2022-09-20T13:18:38.353Z,13.50
2022-09-20T13:21:18.334Z,13.80
2022-09-20T13:23:50.978Z,14.10
2022-09-20T13:26:25.857Z,14.50
2022-09-20T13:28:57.063Z,14.60
2022-09-20T13:31:31.032Z,14.30
2022-09-20T13:34:21.583Z,14.10
2022-09-20T13:36:55.970Z,13.80
2022-09-20T13:39:29.421Z,13.70
2022-09-20T13:42:03.258Z,13.60
2022-09-20T13:44:34.365Z,13.60
2022-09-20T13:47:02.755Z,13.50
2022-09-20T13:49:33.664Z,13.40
2022-09-20T13:52:21.299Z,13.30
2022-09-20T13:54:49.357Z,13.40
2022-09-20T13:57:25.544Z,13.60
2022-09-20T13:59:57.724Z,13.90
2022-09-20T14:02:30.565Z,14.30
2022-09-20T14:05:02.808Z,14.60
2022-09-20T14:07:31.666Z,14.90
2022-09-20T14:10:00.230Z,15.10
2022-09-20T14:12:28.841Z,15.20
2022-09-20T14:14:57.344Z,15.30
2022-09-20T14:17:26.553Z,15.50
2022-09-20T14:19:55.777Z,15.60
2022-09-20T14:22:27.828Z,15.60
2022-09-20T14:25:01.957Z,15.50
2022-09-20T14:27:31.247Z,15.50
2022-09-20T14:30:00.047Z,15.60
2022-09-20T14:32:45.702Z,15.50
2022-09-20T14:35:18.080Z,15.20
2022-09-20T14:37:51.023Z,15.00
2022-09-20T14:40:26.179Z,14.90
2022-09-20T14:42:57.501Z,14.80
2022-09-20T14:45:32.491Z,14.70
2022-09-20T14:48:09.620Z,14.80
2022-09-20T14:50:40.784Z,14.80
2022-09-20T14:53:26.649Z,14.70
2022-09-20T14:56:11.427Z,14.80
2022-09-20T14:59:08.160Z,14.90
2022-09-20T15:01:41.028Z,14.90
2022-09-20T15:04:10.824Z,14.90
2022-09-20T15:06:39.920Z,14.80
2022-09-20T15:09:12.177Z,14.70
2022-09-20T15:11:40.747Z,14.60
2022-09-20T15:14:08.740Z,14.40
2022-09-20T15:16:36.858Z,14.30
2022-09-20T15:19:06.080Z,14.10
2022-09-20T15:21:34.115Z,14.00
2022-09-20T15:24:02.396Z,13.90
2022-09-20T15:26:34.477Z,13.80
2022-09-20T15:29:02.372Z,13.70
2022-09-20T15:31:30.302Z,13.60
2022-09-20T15:33:58.207Z,13.50
2022-09-20T15:36:31.745Z,13.40
2022-09-20T15:38:59.889Z,13.30
2022-09-20T15:41:31.311Z,13.20
2022-09-20T15:44:01.584Z,13.10
2022-09-20T15:46:29.609Z,13.00
2022-09-20T15:48:59.161Z,12.90
2022-09-20T15:51:30.346Z,12.80
2022-09-20T15:54:00.083Z,12.70
2022-09-20T15:56:30.406Z,12.60
2022-09-20T15:59:01.487Z,12.50
2022-09-20T16:01:32.011Z,12.30
2022-09-20T16:04:00.781Z,12.10
2022-09-20T16:06:28.951Z,11.90
2022-09-20T16:08:56.835Z,11.70
2022-09-20T16:11:24.899Z,11.60
2022-09-20T16:13:56.730Z,11.40
2022-09-20T16:16:27.434Z,11.20
2022-09-20T16:19:13.312Z,11.10
2022-09-20T16:21:42.887Z,11.10
2022-09-20T16:24:12.459Z,10.90
2022-09-20T16:26:40.797Z,10.90
2022-09-20T16:29:08.666Z,10.80
2022-09-20T16:31:40.718Z,10.70
2022-09-20T16:34:13.953Z,10.70
2022-09-20T16:36:43.424Z,10.60
2022-09-20T16:39:12.443Z,10.60
2022-09-20T16:41:41.106Z,10.60
2022-09-20T16:44:09.735Z,10.60
2022-09-20T16:46:39.278Z,10.50
2022-09-20T16:49:09.307Z,10.50
2022-09-20T16:51:39.238Z,10.40
2022-09-20T16:54:12.119Z,10.40
2022-09-20T16:56:42.123Z,10.30
2022-09-20T16:59:10.761Z,10.30
2022-09-20T17:01:41.026Z,10.30
2022-09-20T17:04:09.487Z,10.20
2022-09-20T17:06:38.972Z,10.20
2022-09-20T17:09:07.979Z,10.20
2022-09-20T17:11:38.245Z,10.20
2022-09-20T17:14:06.893Z,10.20
2022-09-20T17:16:36.712Z,10.10
2022-09-20T17:19:07.966Z,10.10
2022-09-20T17:21:38.618Z,10.10
2022-09-20T17:24:08.004Z,10.00
2022-09-20T17:26:38.337Z,9.90
2022-09-20T17:29:07.772Z,9.90
2022-09-20T17:31:37.827Z,9.90
2022-09-20T17:34:10.087Z,9.90
2022-09-20T17:36:43.281Z,9.70
2022-09-20T17:39:13.157Z,9.60
2022-09-20T17:41:43.093Z,9.40
2022-09-20T17:44:12.134Z,9.20
2022-09-20T17:46:41.271Z,9.10
2022-09-20T17:49:12.176Z,9.20
2022-09-20T17:51:42.081Z,9.20
2022-09-20T17:54:13.576Z,9.10
2022-09-20T17:56:43.425Z,8.90
2022-09-20T17:59:12.365Z,8.90
2022-09-20T18:01:41.746Z,9.00
2022-09-20T18:04:11.597Z,9.00
2022-09-20T18:06:42.167Z,9.10
2022-09-20T18:09:12.145Z,9.20
2022-09-20T18:11:42.212Z,9.30
2022-09-20T18:14:11.220Z,9.30
2022-09-20T18:16:39.574Z,9.30
2022-09-20T18:19:08.979Z,9.40
2022-09-20T18:21:40.759Z,9.50
2022-09-20T18:24:10.477Z,9.50
2022-09-20T18:26:39.444Z,9.50
2022-09-20T18:29:09.513Z,9.60
2022-09-20T18:31:39.291Z,9.60
2022-09-20T18:34:09.140Z,9.60
2022-09-20T18:36:40.448Z,9.50
2022-09-20T18:39:09.253Z,9.50
2022-09-20T18:41:39.896Z,9.50
2022-09-20T18:44:08.639Z,9.50
2022-09-20T18:46:38.772Z,9.50
2022-09-20T18:49:09.601Z,9.40
2022-09-20T18:51:40.505Z,9.30
2022-09-20T18:54:10.095Z,9.30
2022-09-20T18:56:39.712Z,9.20
2022-09-20T18:59:13.288Z,9.10
2022-09-20T19:02:17.807Z,9.10
2022-09-20T19:05:08.542Z,9.10
2022-09-20T19:07:54.968Z,9.00
2022-09-20T19:10:34.894Z,9.00
2022-09-20T19:13:12.995Z,8.90
2022-09-20T19:15:52.906Z,8.80
2022-09-20T19:18:45.212Z,8.80
2022-09-20T19:21:21.500Z,8.70
2022-09-20T19:24:06.953Z,8.70
2022-09-20T19:26:38.049Z,8.60
2022-09-20T19:29:15.906Z,8.50
2022-09-20T19:31:44.418Z,8.40
2022-09-20T19:34:17.366Z,8.40
2022-09-20T19:36:55.559Z,8.40
2022-09-20T19:39:33.840Z,8.30
2022-09-20T19:42:10.766Z,8.30
2022-09-20T19:44:49.307Z,8.20
2022-09-20T19:47:29.506Z,8.20
2022-09-20T19:50:04.475Z,8.20
2022-09-20T19:52:32.918Z,8.10
2022-09-20T19:55:02.887Z,8.00
2022-09-20T19:57:37.276Z,8.00
2022-09-20T20:00:09.399Z,8.00
2022-09-20T20:02:38.072Z,7.90
2022-09-20T20:05:06.920Z,7.90
2022-09-20T20:07:39.925Z,7.80
2022-09-20T20:10:18.505Z,7.80
2022-09-20T20:12:55.582Z,7.80
2022-09-20T20:15:38.973Z,7.70
2022-09-20T20:18:20.817Z,7.70
2022-09-20T20:20:50.823Z,7.70
2022-09-20T20:23:48.536Z,7.70
2022-09-20T20:26:21.970Z,7.70
2022-09-20T20:28:50.853Z,7.70
2022-09-20T20:31:18.841Z,7.70
2022-09-20T20:33:47.157Z,7.70
2022-09-20T20:36:16.761Z,7.70
2022-09-20T20:38:49.895Z,7.70
2022-09-20T20:41:22.279Z,7.70
2022-09-20T20:43:57.037Z,7.70
2022-09-20T20:46:25.945Z,7.70
2022-09-20T20:48:54.191Z,7.70
2022-09-20T20:51:23.539Z,7.80
2022-09-20T20:54:00.835Z,7.80
2022-09-20T20:56:30.929Z,7.80
2022-09-20T20:59:00.483Z,7.80
2022-09-20T21:01:36.835Z,7.80
2022-09-20T21:04:06.527Z,7.80
2022-09-20T21:06:36.188Z,7.80
2022-09-20T21:09:06.081Z,7.80
2022-09-20T21:11:37.870Z,7.80
2022-09-20T21:14:07.981Z,7.90
2022-09-20T21:16:37.855Z,7.80
2022-09-20T21:19:07.059Z,7.90
2022-09-20T21:21:36.721Z,7.90
2022-09-20T21:24:06.893Z,7.80
2022-09-20T21:26:38.021Z,7.80
2022-09-20T21:29:07.519Z,7.80
2022-09-20T21:31:37.033Z,7.80
2022-09-20T21:34:06.479Z,7.80
2022-09-20T21:36:34.938Z,7.70
2022-09-20T21:39:03.310Z,7.70
2022-09-20T21:41:32.788Z,7.70
2022-09-20T21:44:05.360Z,7.60
2022-09-20T21:46:35.432Z,7.60
2022-09-20T21:49:05.364Z,7.60
2022-09-20T21:51:34.100Z,7.60
2022-09-20T21:54:02.984Z,7.60
2022-09-20T21:56:32.593Z,7.50
2022-09-20T21:59:02.882Z,7.50
2022-09-20T22:01:34.974Z,7.50
2022-09-20T22:04:06.969Z,7.50
2022-09-20T22:06:37.269Z,7.50
2022-09-20T22:09:07.394Z,7.40
2022-09-20T22:11:38.820Z,7.30
2022-09-20T22:14:07.873Z,7.30
2022-09-20T22:16:38.837Z,7.30
2022-09-20T22:19:08.437Z,7.30
2022-09-20T22:21:38.654Z,7.30
2022-09-20T22:24:09.196Z,7.20
2022-09-20T22:26:38.709Z,7.20
2022-09-20T22:29:07.742Z,7.20
2022-09-20T22:31:38.952Z,7.10
2022-09-20T22:34:08.605Z,7.10
2022-09-20T22:36:38.993Z,7.00
2022-09-20T22:39:09.660Z,7.00
2022-09-20T22:41:39.370Z,7.00
2022-09-20T22:44:07.691Z,7.00
2022-09-20T22:46:38.098Z,7.00
2022-09-20T22:49:06.782Z,7.00
2022-09-20T22:51:35.453Z,7.00
2022-09-20T22:54:07.097Z,7.00
2022-09-20T22:56:35.449Z,7.00
2022-09-20T22:59:06.939Z,7.10
2022-09-20T23:01:38.668Z,7.10
2022-09-20T23:04:09.724Z,7.10
2022-09-20T23:06:39.765Z,7.10
2022-09-20T23:09:09.986Z,7.10
2022-09-20T23:11:39.822Z,7.10
2022-09-20T23:14:08.392Z,7.10
2022-09-20T23:16:39.113Z,7.10
2022-09-20T23:19:08.412Z,7.20
2022-09-20T23:21:38.880Z,7.20
2022-09-20T23:24:09.449Z,7.30
2022-09-20T23:26:39.873Z,7.30
2022-09-20T23:29:09.381Z,7.40
2022-09-20T23:31:40.409Z,7.40
2022-09-20T23:34:10.704Z,7.40
2022-09-20T23:36:40.742Z,7.40
2022-09-20T23:39:10.506Z,7.50
2022-09-20T23:41:39.451Z,7.50
2022-09-20T23:44:09.758Z,7.50
2022-09-20T23:46:40.012Z,7.50
2022-09-20T23:49:09.382Z,7.60
2022-09-20T23:51:38.198Z,7.60
2022-09-20T23:54:06.889Z,7.60
2022-09-20T23:56:35.916Z,7.60
2022-09-20T23:59:04.043Z,7.60
